<?xml version="1.0" encoding="UTF-8" standalone="no" ?>
<gpx xmlns="http://www.topografix.com/GPX/1/1" xmlns:xsi="http://www.w3.org/2001/XMLSchema-instance" xsi:schemaLocation="http://www.topografix.com/GPX/1/1 http://www.topografix.com/GPX/1/1/gpx.xsd" version="1.1" creator="VisuGPX - https://www.visugpx.com">
  <metadata>
    <name>boucle breuilh 6km</name>
  </metadata>
  <trk>
    <name><![CDATA[randogps24-462]]></name>
    <trkseg>
      <trkpt lat="45.05675" lon="0.7534">
        <ele>217</ele>
        <time>2015-08-04T12:18:57Z</time>
      </trkpt>
      <trkpt lat="45.05627" lon="0.75415">
        <ele>217</ele>
        <time>2015-08-04T12:21:03Z</time>
      </trkpt>
      <trkpt lat="45.05539" lon="0.75387">
        <ele>221</ele>
        <time>2015-08-04T12:22:54Z</time>
      </trkpt>
      <trkpt lat="45.05445" lon="0.75351">
        <ele>224</ele>
        <time>2015-08-04T12:24:14Z</time>
      </trkpt>
      <trkpt lat="45.05343" lon="0.75312">
        <ele>221</ele>
        <time>2015-08-04T12:25:43Z</time>
      </trkpt>
      <trkpt lat="45.05243" lon="0.75275">
        <ele>218</ele>
        <time>2015-08-04T12:26:59Z</time>
      </trkpt>
      <trkpt lat="45.05154" lon="0.75237">
        <ele>215</ele>
        <time>2015-08-04T12:28:10Z</time>
      </trkpt>
      <trkpt lat="45.05062" lon="0.75207">
        <ele>216</ele>
        <time>2015-08-04T12:29:17Z</time>
      </trkpt>
      <trkpt lat="45.04978" lon="0.75142">
        <ele>215</ele>
        <time>2015-08-04T12:30:34Z</time>
      </trkpt>
      <trkpt lat="45.04885" lon="0.75081">
        <ele>215</ele>
        <time>2015-08-04T12:31:56Z</time>
      </trkpt>
      <trkpt lat="45.04785" lon="0.75068">
        <ele>216</ele>
        <time>2015-08-04T12:33:18Z</time>
      </trkpt>
      <trkpt lat="45.04683" lon="0.75045">
        <ele>212</ele>
        <time>2015-08-04T12:34:37Z</time>
      </trkpt>
      <trkpt lat="45.04601" lon="0.74998">
        <ele>210</ele>
        <time>2015-08-04T12:36:07Z</time>
      </trkpt>
      <trkpt lat="45.04498" lon="0.7506">
        <ele>203</ele>
        <time>2015-08-04T12:37:40Z</time>
      </trkpt>
      <trkpt lat="45.04423" lon="0.75102">
        <ele>196</ele>
        <time>2015-08-04T12:39:15Z</time>
      </trkpt>
      <trkpt lat="45.04442" lon="0.75231">
        <ele>207</ele>
        <time>2015-08-04T12:40:34Z</time>
      </trkpt>
      <trkpt lat="45.04459" lon="0.75356">
        <ele>210</ele>
        <time>2015-08-04T12:41:49Z</time>
      </trkpt>
      <trkpt lat="45.04466" lon="0.75514">
        <ele>207</ele>
        <time>2015-08-04T12:43:12Z</time>
      </trkpt>
      <trkpt lat="45.04472" lon="0.75572">
        <ele>203</ele>
        <time>2015-08-04T12:43:12Z</time>
      </trkpt>
      <trkpt lat="45.04478" lon="0.75594">
        <ele>203</ele>
        <time>2015-08-04T12:43:12Z</time>
      </trkpt>
      <trkpt lat="45.04503" lon="0.7559">
        <ele>203</ele>
        <time>2015-08-04T12:43:12Z</time>
      </trkpt>
      <trkpt lat="45.04511" lon="0.75592">
        <ele>203</ele>
        <time>2015-08-04T12:43:12Z</time>
      </trkpt>
      <trkpt lat="45.04532" lon="0.7572">
        <ele>191</ele>
        <time>2015-08-04T12:45:56Z</time>
      </trkpt>
      <trkpt lat="45.04546" lon="0.75859">
        <ele>187</ele>
        <time>2015-08-04T12:47:27Z</time>
      </trkpt>
      <trkpt lat="45.04577" lon="0.75999">
        <ele>194</ele>
        <time>2015-08-04T12:49:02Z</time>
      </trkpt>
      <trkpt lat="45.04656" lon="0.76137">
        <ele>204</ele>
        <time>2015-08-04T12:51:22Z</time>
      </trkpt>
      <trkpt lat="45.04673" lon="0.76188">
        <ele>204</ele>
        <time>2015-08-04T12:51:22Z</time>
      </trkpt>
      <trkpt lat="45.04687" lon="0.76239">
        <ele>206</ele>
        <time>2015-08-04T12:51:22Z</time>
      </trkpt>
      <trkpt lat="45.04712" lon="0.76229">
        <ele>211</ele>
        <time>2015-08-04T12:53:02Z</time>
      </trkpt>
      <trkpt lat="45.04677" lon="0.76385">
        <ele>213</ele>
        <time>2015-08-04T12:55:54Z</time>
      </trkpt>
      <trkpt lat="45.04657" lon="0.76506">
        <ele>214</ele>
        <time>2015-08-04T12:57:16Z</time>
      </trkpt>
      <trkpt lat="45.04621" lon="0.76499">
        <ele>215</ele>
        <time>2015-08-04T12:57:16Z</time>
      </trkpt>
      <trkpt lat="45.04631" lon="0.76534">
        <ele>214</ele>
        <time>2015-08-04T12:57:16Z</time>
      </trkpt>
      <trkpt lat="45.04648" lon="0.76571">
        <ele>212</ele>
        <time>2015-08-04T12:59:40Z</time>
      </trkpt>
      <trkpt lat="45.04674" lon="0.76693">
        <ele>212</ele>
        <time>2015-08-04T13:00:58Z</time>
      </trkpt>
      <trkpt lat="45.04742" lon="0.76825">
        <ele>204</ele>
        <time>2015-08-04T13:02:59Z</time>
      </trkpt>
      <trkpt lat="45.04871" lon="0.76827">
        <ele>190</ele>
        <time>2015-08-04T13:05:10Z</time>
      </trkpt>
      <trkpt lat="45.04941" lon="0.76737">
        <ele>185</ele>
        <time>2015-08-04T13:06:53Z</time>
      </trkpt>
      <trkpt lat="45.05054" lon="0.76836">
        <ele>173</ele>
        <time>2015-08-04T13:08:48Z</time>
      </trkpt>
      <trkpt lat="45.05136" lon="0.76945">
        <ele>162</ele>
        <time>2015-08-04T13:10:20Z</time>
      </trkpt>
      <trkpt lat="45.05213" lon="0.76871">
        <ele>162</ele>
        <time>2015-08-04T13:11:37Z</time>
      </trkpt>
      <trkpt lat="45.05287" lon="0.76785">
        <ele>164</ele>
        <time>2015-08-04T13:12:48Z</time>
      </trkpt>
      <trkpt lat="45.05371" lon="0.76733">
        <ele>163</ele>
        <time>2015-08-04T13:13:59Z</time>
      </trkpt>
      <trkpt lat="45.05437" lon="0.7665">
        <ele>164</ele>
        <time>2015-08-04T13:15:31Z</time>
      </trkpt>
      <trkpt lat="45.0538" lon="0.76512">
        <ele>180</ele>
        <time>2015-08-04T13:17:22Z</time>
      </trkpt>
      <trkpt lat="45.05494" lon="0.76437">
        <ele>185</ele>
        <time>2015-08-04T13:19:01Z</time>
      </trkpt>
      <trkpt lat="45.05625" lon="0.76363">
        <ele>192</ele>
        <time>2015-08-04T13:21:34Z</time>
      </trkpt>
      <trkpt lat="45.05726" lon="0.76292">
        <ele>180</ele>
        <time>2015-08-04T13:23:16Z</time>
      </trkpt>
      <trkpt lat="45.05832" lon="0.76226">
        <ele>183</ele>
        <time>2015-08-04T13:24:53Z</time>
      </trkpt>
      <trkpt lat="45.05931" lon="0.76166">
        <ele>175</ele>
        <time>2015-08-04T13:26:30Z</time>
      </trkpt>
      <trkpt lat="45.05831" lon="0.76061">
        <ele>183</ele>
        <time>2015-08-04T13:28:32Z</time>
      </trkpt>
      <trkpt lat="45.05755" lon="0.75969">
        <ele>195</ele>
        <time>2015-08-04T13:29:56Z</time>
      </trkpt>
      <trkpt lat="45.05707" lon="0.7584">
        <ele>212</ele>
        <time>2015-08-04T13:31:22Z</time>
      </trkpt>
      <trkpt lat="45.05632" lon="0.75711">
        <ele>210</ele>
        <time>2015-08-04T13:32:56Z</time>
      </trkpt>
      <trkpt lat="45.05538" lon="0.75598">
        <ele>218</ele>
        <time>2015-08-04T13:34:29Z</time>
      </trkpt>
      <trkpt lat="45.05576" lon="0.75472">
        <ele>218</ele>
        <time>2015-08-04T13:35:39Z</time>
      </trkpt>
      <trkpt lat="45.0565" lon="0.754">
        <ele>217</ele>
        <time>2015-08-04T13:36:51Z</time>
      </trkpt>
      <trkpt lat="45.05677" lon="0.75337">
        <ele>217</ele>
        <time>2015-08-04T13:38:22Z</time>
      </trkpt>
    </trkseg>
  </trk>
</gpx>